LFKJ/AJA METAR and TAF weather

Enter ICAO airport designator
Station Type Date Time Source
LFKJ METAR 2019/04/22 18:00 UTC NOAA

LFKJ 221800Z AUTO 04004KT 340V130 9999 BKN070 BKN140 20/09 Q0999 NOSIG


Station Type Date Time Source
LFKJ Decoded METAR 2019/04/22 18:00 UTC NOAA

Ajaccio, France (LFKJ) 41-55N 008-48E 9M
Apr 22, 2019 - 02:00 PM EDT / 2019.04.22 1800 UTC
Wind: from the NE (040 degrees) at 5 MPH (4 KT) (direction variable):0
Visibility: greater than 7 mile(s):0
Sky conditions: mostly cloudy
Temperature: 68 F (20 C)
Dew Point: 48 F (9 C)
Relative Humidity: 49%
Pressure (altimeter): 29.50 in. Hg (0999 hPa)
ob: LFKJ 221800Z AUTO 04004KT 340V130 9999 BKN070 BKN140 20/09 Q0999 NOSIG
cycle: 18

Station Type Date Time Source
LFKJ TAF 2019/04/22 15:21 UTC NOAA

TAF LFKJ 221400Z 2215/2315 26006KT 9999 FEW040
TEMPO 2217/2220 06012G22KT
TEMPO 2310/2315 SHRA SCT025 FEW030CB
BECMG 2306/2308 22010KT

Example: see airport list